sensor_id;sensor_type;location;lat;lon;timestamp;pressure;altitude;pressure_sealevel;temperature;humidity
71361;BME280;59166;48.908;1.870;2023-04-08T00:00:40;100973.72;;;6.98;89.25
71361;BME280;59166;48.908;1.870;2023-04-08T00:05:41;100970.03;;;6.93;89.20
71361;BME280;59166;48.908;1.870;2023-04-08T00:10:43;100973.44;;;6.82;89.77
71361;BME280;59166;48.908;1.870;2023-04-08T00:15:45;100973.53;;;6.68;90.97
71361;BME280;59166;48.908;1.870;2023-04-08T00:20:46;100983.53;;;6.61;91.43
71361;BME280;59166;48.908;1.870;2023-04-08T00:25:47;100977.38;;;6.54;91.70
71361;BME280;59166;48.908;1.870;2023-04-08T00:30:49;100978.22;;;6.48;91.74
71361;BME280;59166;48.908;1.870;2023-04-08T00:35:52;100968.56;;;6.41;92.14
71361;BME280;59166;48.908;1.870;2023-04-08T00:40:53;100968.03;;;6.25;93.13
71361;BME280;59166;48.908;1.870;2023-04-08T00:45:55;100970.75;;;6.19;94.04
71361;BME280;59166;48.908;1.870;2023-04-08T00:50:56;100966.47;;;6.11;94.52
71361;BME280;59166;48.908;1.870;2023-04-08T00:55:57;100967.31;;;6.05;94.59
71361;BME280;59166;48.908;1.870;2023-04-08T01:01:02;100966.41;;;5.87;94.79
71361;BME280;59166;48.908;1.870;2023-04-08T01:06:12;100968.50;;;5.71;96.11
71361;BME280;59166;48.908;1.870;2023-04-08T01:11:15;100979.47;;;5.63;96.02
71361;BME280;59166;48.908;1.870;2023-04-08T01:16:19;100985.63;;;5.64;97.99
71361;BME280;59166;48.908;1.870;2023-04-08T01:21:25;100984.03;;;5.56;97.43
71361;BME280;59166;48.908;1.870;2023-04-08T01:26:29;100977.91;;;5.43;97.86
71361;BME280;59166;48.908;1.870;2023-04-08T01:31:30;100983.03;;;5.38;98.19
71361;BME280;59166;48.908;1.870;2023-04-08T01:36:32;100979.56;;;5.31;98.98
71361;BME280;59166;48.908;1.870;2023-04-08T01:41:36;100978.72;;;5.30;99.04
71361;BME280;59166;48.908;1.870;2023-04-08T01:46:38;100980.81;;;5.28;99.98
71361;BME280;59166;48.908;1.870;2023-04-08T01:51:41;100977.72;;;5.24;99.01
71361;BME280;59166;48.908;1.870;2023-04-08T01:56:45;100979.16;;;5.20;98.15
71361;BME280;59166;48.908;1.870;2023-04-08T02:01:46;100977.53;;;5.19;98.61
71361;BME280;59166;48.908;1.870;2023-04-08T02:06:49;100981.22;;;5.18;98.05
71361;BME280;59166;48.908;1.870;2023-04-08T02:11:51;100980.00;;;5.14;99.11
71361;BME280;59166;48.908;1.870;2023-04-08T02:16:53;100983.69;;;5.13;100.00
71361;BME280;59166;48.908;1.870;2023-04-08T02:22:01;100984.13;;;5.10;100.00
71361;BME280;59166;48.908;1.870;2023-04-08T02:27:06;100993.59;;;5.06;100.00
71361;BME280;59166;48.908;1.870;2023-04-08T02:32:11;100984.97;;;4.98;100.00
71361;BME280;59166;48.908;1.870;2023-04-08T02:37:12;100983.72;;;4.87;100.00
71361;BME280;59166;48.908;1.870;2023-04-08T02:42:14;100982.91;;;4.80;100.00
71361;BME280;59166;48.908;1.870;2023-04-08T02:47:15;100987.22;;;4.68;100.00
71361;BME280;59166;48.908;1.870;2023-04-08T02:52:16;100986.81;;;4.64;100.00
71361;BME280;59166;48.908;1.870;2023-04-08T02:57:18;100983.31;;;4.57;100.00
71361;BME280;59166;48.908;1.870;2023-04-08T03:02:19;100985.75;;;4.46;100.00
71361;BME280;59166;48.908;1.870;2023-04-08T03:07:20;100979.19;;;4.42;100.00
71361;BME280;59166;48.908;1.870;2023-04-08T03:12:23;100973.19;;;4.40;100.00
71361;BME280;59166;48.908;1.870;2023-04-08T03:17:23;100971.94;;;4.36;100.00
71361;BME280;59166;48.908;1.870;2023-04-08T03:22:24;100969.28;;;4.36;100.00
71361;BME280;59166;48.908;1.870;2023-04-08T03:27:27;100975.88;;;4.33;100.00
71361;BME280;59166;48.908;1.870;2023-04-08T03:32:28;100973.19;;;4.27;100.00
71361;BME280;59166;48.908;1.870;2023-04-08T03:37:28;100984.69;;;4.20;100.00
71361;BME280;59166;48.908;1.870;2023-04-08T03:42:31;100983.44;;;4.16;100.00
71361;BME280;59166;48.908;1.870;2023-04-08T03:47:32;100980.34;;;4.06;100.00
71361;BME280;59166;48.908;1.870;2023-04-08T03:52:33;100988.53;;;3.98;100.00
71361;BME280;59166;48.908;1.870;2023-04-08T03:57:35;100990.13;;;3.86;100.00
71361;BME280;59166;48.908;1.870;2023-04-08T04:02:36;100990.13;;;3.86;100.00
71361;BME280;59166;48.908;1.870;2023-04-08T04:07:37;100983.53;;;3.82;100.00
71361;BME280;59166;48.908;1.870;2023-04-08T04:12:39;100981.41;;;3.71;100.00
71361;BME280;59166;48.908;1.870;2023-04-08T04:17:40;100983.88;;;3.66;100.00
71361;BME280;59166;48.908;1.870;2023-04-08T04:22:41;101000.72;;;3.60;100.00
71361;BME280;59166;48.908;1.870;2023-04-08T04:27:43;100999.66;;;3.61;100.00
71361;BME280;59166;48.908;1.870;2023-04-08T04:32:44;100998.47;;;3.63;100.00
71361;BME280;59166;48.908;1.870;2023-04-08T04:37:45;100991.66;;;3.61;100.00
71361;BME280;59166;48.908;1.870;2023-04-08T04:42:48;101005.00;;;3.61;100.00
71361;BME280;59166;48.908;1.870;2023-04-08T04:47:49;101011.41;;;3.60;100.00
71361;BME280;59166;48.908;1.870;2023-04-08T04:52:49;101018.16;;;3.56;100.00
71361;BME280;59166;48.908;1.870;2023-04-08T04:57:52;101025.47;;;3.47;100.00
71361;BME280;59166;48.908;1.870;2023-04-08T05:02:53;101041.59;;;3.26;100.00
71361;BME280;59166;48.908;1.870;2023-04-08T05:07:54;101037.59;;;3.15;100.00
71361;BME280;59166;48.908;1.870;2023-04-08T05:12:56;101046.44;;;3.16;100.00
71361;BME280;59166;48.908;1.870;2023-04-08T05:17:57;101036.59;;;3.16;100.00
71361;BME280;59166;48.908;1.870;2023-04-08T05:22:58;101048.91;;;3.17;100.00
71361;BME280;59166;48.908;1.870;2023-04-08T05:28:00;101059.13;;;3.14;100.00
71361;BME280;59166;48.908;1.870;2023-04-08T05:33:01;101061.41;;;3.17;100.00
71361;BME280;59166;48.908;1.870;2023-04-08T05:38:02;101062.25;;;3.17;100.00
71361;BME280;59166;48.908;1.870;2023-04-08T05:43:04;101067.97;;;3.14;100.00
71361;BME280;59166;48.908;1.870;2023-04-08T05:48:05;101070.59;;;3.08;100.00
71361;BME280;59166;48.908;1.870;2023-04-08T05:53:06;101075.53;;;3.11;100.00
71361;BME280;59166;48.908;1.870;2023-04-08T05:58:08;101073.69;;;3.11;100.00
71361;BME280;59166;48.908;1.870;2023-04-08T06:03:09;101074.75;;;3.17;100.00
71361;BME280;59166;48.908;1.870;2023-04-08T06:08:10;101091.63;;;3.17;100.00
71361;BME280;59166;48.908;1.870;2023-04-08T06:13:13;101092.50;;;3.25;100.00
71361;BME280;59166;48.908;1.870;2023-04-08T06:18:13;101092.16;;;3.34;100.00
71361;BME280;59166;48.908;1.870;2023-04-08T06:23:14;101095.53;;;3.43;100.00
71361;BME280;59166;48.908;1.870;2023-04-08T06:28:17;101110.03;;;3.61;100.00
71361;BME280;59166;48.908;1.870;2023-04-08T06:33:18;101115.69;;;3.80;100.00
71361;BME280;59166;48.908;1.870;2023-04-08T06:38:19;101120.69;;;3.89;100.00
71361;BME280;59166;48.908;1.870;2023-04-08T06:43:21;101124.66;;;4.00;100.00
71361;BME280;59166;48.908;1.870;2023-04-08T06:48:22;101130.28;;;4.11;100.00
71361;BME280;59166;48.908;1.870;2023-04-08T06:53:23;101133.22;;;4.30;100.00
71361;BME280;59166;48.908;1.870;2023-04-08T06:58:26;101143.84;;;4.57;100.00
71361;BME280;59166;48.908;1.870;2023-04-08T07:03:26;101141.50;;;4.95;100.00
71361;BME280;59166;48.908;1.870;2023-04-08T07:08:27;101144.63;;;5.32;100.00
71361;BME280;59166;48.908;1.870;2023-04-08T07:13:30;101153.47;;;5.58;100.00
71361;BME280;59166;48.908;1.870;2023-04-08T07:18:31;101152.22;;;5.81;100.00
71361;BME280;59166;48.908;1.870;2023-04-08T07:23:32;101161.25;;;6.06;100.00
71361;BME280;59166;48.908;1.870;2023-04-08T07:28:34;101163.22;;;6.37;98.29
71361;BME280;59166;48.908;1.870;2023-04-08T07:33:35;101162.34;;;6.56;97.48
71361;BME280;59166;48.908;1.870;2023-04-08T07:38:36;101156.47;;;6.78;95.23
71361;BME280;59166;48.908;1.870;2023-04-08T07:43:39;101159.22;;;7.03;92.78
71361;BME280;59166;48.908;1.870;2023-04-08T07:48:40;101159.81;;;7.12;90.94
71361;BME280;59166;48.908;1.870;2023-04-08T07:53:41;101172.41;;;7.36;89.58
71361;BME280;59166;48.908;1.870;2023-04-08T07:58:43;101178.81;;;7.66;88.60
71361;BME280;59166;48.908;1.870;2023-04-08T08:03:44;101185.13;;;7.78;89.72
71361;BME280;59166;48.908;1.870;2023-04-08T08:08:45;101185.59;;;7.94;87.31
71361;BME280;59166;48.908;1.870;2023-04-08T08:13:47;101183.75;;;8.12;87.71
71361;BME280;59166;48.908;1.870;2023-04-08T08:18:48;101182.38;;;8.46;83.33
71361;BME280;59166;48.908;1.870;2023-04-08T08:23:51;101187.19;;;8.92;80.20
71361;BME280;59166;48.908;1.870;2023-04-08T08:28:53;101190.25;;;9.90;76.50
71361;BME280;59166;48.908;1.870;2023-04-08T08:33:54;101198.91;;;10.39;71.88
71361;BME280;59166;48.908;1.870;2023-04-08T08:38:55;101201.47;;;10.57;72.26
71361;BME280;59166;48.908;1.870;2023-04-08T08:43:59;101197.72;;;10.46;71.94
71361;BME280;59166;48.908;1.870;2023-04-08T08:49:00;101192.44;;;11.48;68.49
71361;BME280;59166;48.908;1.870;2023-04-08T08:54:02;101199.63;;;11.42;67.32
71361;BME280;59166;48.908;1.870;2023-04-08T08:59:08;101212.13;;;11.76;65.31
71361;BME280;59166;48.908;1.870;2023-04-08T09:04:21;101210.72;;;11.41;65.79
71361;BME280;59166;48.908;1.870;2023-04-08T09:26:57;101213.81;;;12.49;63.41
71361;BME280;59166;48.908;1.870;2023-04-08T09:37:47;101217.97;;;13.00;62.45
71361;BME280;59166;48.908;1.870;2023-04-08T10:05:43;101216.75;;;13.39;61.75
71361;BME280;59166;48.908;1.870;2023-04-08T10:10:45;101211.75;;;13.26;58.91
71361;BME280;59166;48.908;1.870;2023-04-08T10:15:46;101216.63;;;13.03;61.40
71361;BME280;59166;48.908;1.870;2023-04-08T10:20:49;101207.41;;;13.04;60.45
71361;BME280;59166;48.908;1.870;2023-04-08T10:25:50;101202.69;;;12.94;61.47
71361;BME280;59166;48.908;1.870;2023-04-08T10:30:51;101199.03;;;13.05;59.45
71361;BME280;59166;48.908;1.870;2023-04-08T10:35:59;101199.34;;;13.09;60.73
71361;BME280;59166;48.908;1.870;2023-04-08T10:41:00;101189.75;;;13.01;59.71
71361;BME280;59166;48.908;1.870;2023-04-08T10:46:02;101191.31;;;12.97;60.04
71361;BME280;59166;48.908;1.870;2023-04-08T10:51:05;101188.38;;;13.25;61.20
71361;BME280;59166;48.908;1.870;2023-04-08T10:56:07;101177.47;;;13.74;59.30
71361;BME280;59166;48.908;1.870;2023-04-08T11:01:08;101172.34;;;13.82;57.64
71361;BME280;59166;48.908;1.870;2023-04-08T11:06:11;101176.28;;;13.38;58.63
71361;BME280;59166;48.908;1.870;2023-04-08T11:11:12;101163.91;;;13.79;59.22
71361;BME280;59166;48.908;1.870;2023-04-08T11:16:33;101159.53;;;13.73;56.16
71361;BME280;59166;48.908;1.870;2023-04-08T11:21:36;101158.00;;;13.87;56.23
71361;BME280;59166;48.908;1.870;2023-04-08T11:26:38;101158.03;;;13.92;57.41
71361;BME280;59166;48.908;1.870;2023-04-08T11:31:40;101160.78;;;13.97;56.47
71361;BME280;59166;48.908;1.870;2023-04-08T11:36:44;101152.00;;;14.27;56.43
71361;BME280;59166;48.908;1.870;2023-04-08T11:41:45;101150.38;;;15.03;55.56
71361;BME280;59166;48.908;1.870;2023-04-08T11:46:51;101151.84;;;14.54;53.43
71361;BME280;59166;48.908;1.870;2023-04-08T11:51:57;101148.78;;;14.35;54.48
71361;BME280;59166;48.908;1.870;2023-04-08T11:56:59;101138.88;;;14.76;52.63
71361;BME280;59166;48.908;1.870;2023-04-08T12:02:00;101140.38;;;14.41;53.22
71361;BME280;59166;48.908;1.870;2023-04-08T12:07:02;101137.25;;;14.80;53.68
71361;BME280;59166;48.908;1.870;2023-04-08T12:12:03;101143.91;;;15.09;52.58
71361;BME280;59166;48.908;1.870;2023-04-08T12:17:04;101142.81;;;15.30;52.10
71361;BME280;59166;48.908;1.870;2023-04-08T12:22:07;101138.47;;;15.50;52.17
71361;BME280;59166;48.908;1.870;2023-04-08T12:27:08;101127.28;;;15.21;51.76
71361;BME280;59166;48.908;1.870;2023-04-08T12:32:09;101124.88;;;15.39;52.88
71361;BME280;59166;48.908;1.870;2023-04-08T12:37:11;101131.41;;;15.54;51.44
71361;BME280;59166;48.908;1.870;2023-04-08T12:42:32;101124.00;;;15.74;50.21
71361;BME280;59166;48.908;1.870;2023-04-08T12:47:33;101117.75;;;15.84;51.43
71361;BME280;59166;48.908;1.870;2023-04-08T12:52:36;101117.78;;;15.64;51.47
71361;BME280;59166;48.908;1.870;2023-04-08T12:57:36;101121.59;;;15.37;51.21
71361;BME280;59166;48.908;1.870;2023-04-08T13:02:37;101122.13;;;15.34;51.97
71361;BME280;59166;48.908;1.870;2023-04-08T13:07:40;101112.31;;;15.79;52.43
71361;BME280;59166;48.908;1.870;2023-04-08T13:12:41;101112.94;;;16.45;53.27
71361;BME280;59166;48.908;1.870;2023-04-08T13:17:42;101111.59;;;16.48;48.46
71361;BME280;59166;48.908;1.870;2023-04-08T13:22:44;101109.03;;;15.82;47.78
71361;BME280;59166;48.908;1.870;2023-04-08T13:27:45;101105.47;;;15.91;50.34
71361;BME280;59166;48.908;1.870;2023-04-08T13:32:46;101104.09;;;15.89;48.23
71361;BME280;59166;48.908;1.870;2023-04-08T13:37:49;101097.78;;;16.19;50.07
71361;BME280;59166;48.908;1.870;2023-04-08T13:42:50;101095.41;;;15.87;53.02
71361;BME280;59166;48.908;1.870;2023-04-08T13:47:51;101094.81;;;16.00;50.45
71361;BME280;59166;48.908;1.870;2023-04-08T13:52:53;101086.97;;;15.78;49.11
71361;BME280;59166;48.908;1.870;2023-04-08T13:57:54;101080.97;;;15.86;49.45
71361;BME280;59166;48.908;1.870;2023-04-08T14:02:55;101080.34;;;16.05;48.38
71361;BME280;59166;48.908;1.870;2023-04-08T14:07:57;101077.25;;;16.36;49.74
71361;BME280;59166;48.908;1.870;2023-04-08T14:12:58;101070.56;;;16.63;48.40
71361;BME280;59166;48.908;1.870;2023-04-08T14:17:59;101074.91;;;16.05;48.67
71361;BME280;59166;48.908;1.870;2023-04-08T14:23:02;101066.31;;;16.52;49.09
71361;BME280;59166;48.908;1.870;2023-04-08T14:28:03;101053.50;;;16.86;48.03
71361;BME280;59166;48.908;1.870;2023-04-08T14:33:04;101055.06;;;16.97;46.46
71361;BME280;59166;48.908;1.870;2023-04-08T14:38:06;101056.66;;;17.03;47.57
71361;BME280;59166;48.908;1.870;2023-04-08T14:43:07;101059.84;;;16.76;48.96
71361;BME280;59166;48.908;1.870;2023-04-08T14:48:08;101053.91;;;16.69;47.16
71361;BME280;59166;48.908;1.870;2023-04-08T14:53:11;101045.88;;;16.88;45.58
71361;BME280;59166;48.908;1.870;2023-04-08T14:58:12;101059.16;;;17.00;47.95
71361;BME280;59166;48.908;1.870;2023-04-08T15:03:13;101051.28;;;16.93;46.61
71361;BME280;59166;48.908;1.870;2023-04-08T15:08:16;101065.72;;;16.55;46.43
71361;BME280;59166;48.908;1.870;2023-04-08T15:13:17;101057.31;;;16.46;47.36
71361;BME280;59166;48.908;1.870;2023-04-08T15:18:18;101063.91;;;16.35;47.87
71361;BME280;59166;48.908;1.870;2023-04-08T15:23:20;101061.88;;;16.61;48.13
71361;BME280;59166;48.908;1.870;2023-04-08T15:28:21;101058.44;;;16.40;46.10
71361;BME280;59166;48.908;1.870;2023-04-08T15:33:22;101051.66;;;16.32;46.81
71361;BME280;59166;48.908;1.870;2023-04-08T15:38:25;101057.97;;;16.28;46.90
71361;BME280;59166;48.908;1.870;2023-04-08T15:43:26;101065.44;;;15.82;47.17
71361;BME280;59166;48.908;1.870;2023-04-08T15:48:26;101064.00;;;16.15;48.90
71361;BME280;59166;48.908;1.870;2023-04-08T15:53:29;101061.13;;;16.45;46.75
71361;BME280;59166;48.908;1.870;2023-04-08T15:58:30;101059.81;;;16.32;49.54
71361;BME280;59166;48.908;1.870;2023-04-08T16:03:31;101043.59;;;15.97;50.36
71361;BME280;59166;48.908;1.870;2023-04-08T16:08:34;101048.97;;;16.22;50.75
71361;BME280;59166;48.908;1.870;2023-04-08T16:13:34;101050.13;;;16.11;49.16
71361;BME280;59166;48.908;1.870;2023-04-08T16:18:35;101049.53;;;16.19;49.27
71361;BME280;59166;48.908;1.870;2023-04-08T16:23:38;101056.63;;;16.15;49.60
71361;BME280;59166;48.908;1.870;2023-04-08T16:28:39;101043.81;;;16.21;48.43
71361;BME280;59166;48.908;1.870;2023-04-08T16:33:39;101039.25;;;15.96;48.08
71361;BME280;59166;48.908;1.870;2023-04-08T16:38:42;101048.53;;;15.85;48.26
71361;BME280;59166;48.908;1.870;2023-04-08T16:43:43;101040.94;;;15.77;48.53
71361;BME280;59166;48.908;1.870;2023-04-08T16:48:43;101046.44;;;15.57;50.29
71361;BME280;59166;48.908;1.870;2023-04-08T16:53:46;101041.81;;;15.37;50.39
71361;BME280;59166;48.908;1.870;2023-04-08T16:58:47;101044.00;;;15.05;50.63
71361;BME280;59166;48.908;1.870;2023-04-08T17:03:47;101041.78;;;14.81;51.21
71361;BME280;59166;48.908;1.870;2023-04-08T17:08:50;101044.19;;;14.63;52.36
71361;BME280;59166;48.908;1.870;2023-04-08T17:13:50;101041.34;;;14.22;52.95
71361;BME280;59166;48.908;1.870;2023-04-08T17:18:51;101038.78;;;13.90;53.02
71361;BME280;59166;48.908;1.870;2023-04-08T17:23:54;101045.44;;;13.68;54.04
71361;BME280;59166;48.908;1.870;2023-04-08T17:28:54;101046.44;;;13.62;54.11
71361;BME280;59166;48.908;1.870;2023-04-08T17:33:55;101037.63;;;13.39;55.09
71361;BME280;59166;48.908;1.870;2023-04-08T17:38:58;101048.41;;;13.29;55.81
71361;BME280;59166;48.908;1.870;2023-04-08T17:43:59;101047.22;;;13.15;56.68
71361;BME280;59166;48.908;1.870;2023-04-08T17:48:59;101054.19;;;13.06;57.28
71361;BME280;59166;48.908;1.870;2023-04-08T17:54:02;101048.94;;;12.95;57.81
71361;BME280;59166;48.908;1.870;2023-04-08T17:59:03;101052.63;;;12.83;58.34
71361;BME280;59166;48.908;1.870;2023-04-08T18:04:04;101057.69;;;12.75;58.32
71361;BME280;59166;48.908;1.870;2023-04-08T18:09:06;101045.94;;;12.64;60.05
71361;BME280;59166;48.908;1.870;2023-04-08T18:14:07;101048.84;;;12.58;59.61
71361;BME280;59166;48.908;1.870;2023-04-08T18:19:07;101048.69;;;12.43;61.00
71361;BME280;59166;48.908;1.870;2023-04-08T18:24:09;101049.84;;;12.30;61.50
71361;BME280;59166;48.908;1.870;2023-04-08T18:29:10;101047.03;;;12.20;61.99
71361;BME280;59166;48.908;1.870;2023-04-08T18:34:11;101048.47;;;12.06;63.08
71361;BME280;59166;48.908;1.870;2023-04-08T18:39:13;101060.81;;;11.97;63.80
71361;BME280;59166;48.908;1.870;2023-04-08T18:44:13;101056.28;;;11.80;64.19
71361;BME280;59166;48.908;1.870;2023-04-08T18:49:14;101047.38;;;11.63;65.34
71361;BME280;59166;48.908;1.870;2023-04-08T18:54:16;101050.34;;;11.45;65.91
71361;BME280;59166;48.908;1.870;2023-04-08T18:59:17;101058.06;;;11.36;66.45
71361;BME280;59166;48.908;1.870;2023-04-08T19:04:17;101061.34;;;11.22;67.11
71361;BME280;59166;48.908;1.870;2023-04-08T19:09:19;101069.78;;;11.09;68.23
71361;BME280;59166;48.908;1.870;2023-04-08T19:14:20;101067.81;;;11.04;68.39
71361;BME280;59166;48.908;1.870;2023-04-08T19:19:21;101069.22;;;11.07;68.54
71361;BME280;59166;48.908;1.870;2023-04-08T19:24:23;101079.25;;;10.95;69.03
71361;BME280;59166;48.908;1.870;2023-04-08T19:29:24;101077.78;;;10.87;69.91
71361;BME280;59166;48.908;1.870;2023-04-08T19:34:25;101088.44;;;10.65;70.24
71361;BME280;59166;48.908;1.870;2023-04-08T19:39:27;101092.25;;;10.53;70.74
71361;BME280;59166;48.908;1.870;2023-04-08T19:44:28;101099.81;;;10.39;71.51
71361;BME280;59166;48.908;1.870;2023-04-08T19:49:28;101100.84;;;10.38;71.56
71361;BME280;59166;48.908;1.870;2023-04-08T19:54:30;101105.00;;;10.29;71.75
71361;BME280;59166;48.908;1.870;2023-04-08T19:59:31;101101.13;;;10.13;72.43
71361;BME280;59166;48.908;1.870;2023-04-08T20:04:32;101108.44;;;10.01;73.50
71361;BME280;59166;48.908;1.870;2023-04-08T20:09:35;101107.19;;;9.92;73.62
71361;BME280;59166;48.908;1.870;2023-04-08T20:14:39;101100.47;;;9.83;73.64
71361;BME280;59166;48.908;1.870;2023-04-08T20:19:40;101108.69;;;9.76;74.13
71361;BME280;59166;48.908;1.870;2023-04-08T20:24:42;101112.47;;;9.64;74.89
71361;BME280;59166;48.908;1.870;2023-04-08T20:29:43;101106.34;;;9.57;74.64
71361;BME280;59166;48.908;1.870;2023-04-08T20:34:44;101117.84;;;9.52;75.17
71361;BME280;59166;48.908;1.870;2023-04-08T20:39:46;101106.25;;;9.52;75.22
71361;BME280;59166;48.908;1.870;2023-04-08T20:44:46;101091.34;;;9.49;75.45
71361;BME280;59166;48.908;1.870;2023-04-08T20:49:47;101096.03;;;9.30;76.12
71361;BME280;59166;48.908;1.870;2023-04-08T20:54:50;101091.09;;;9.27;76.01
71361;BME280;59166;48.908;1.870;2023-04-08T20:59:50;101097.63;;;9.20;76.72
71361;BME280;59166;48.908;1.870;2023-04-08T21:04:51;101108.06;;;9.16;76.39
71361;BME280;59166;48.908;1.870;2023-04-08T21:09:53;101109.72;;;9.17;77.41
71361;BME280;59166;48.908;1.870;2023-04-08T21:14:54;101108.84;;;9.05;77.58
71361;BME280;59166;48.908;1.870;2023-04-08T21:19:55;101111.91;;;9.09;77.21
71361;BME280;59166;48.908;1.870;2023-04-08T21:24:57;101112.72;;;9.09;77.71
71361;BME280;59166;48.908;1.870;2023-04-08T21:29:57;101106.50;;;8.97;78.50
71361;BME280;59166;48.908;1.870;2023-04-08T21:34:58;101113.03;;;8.90;78.51
71361;BME280;59166;48.908;1.870;2023-04-08T21:40:00;101116.34;;;8.73;78.36
71361;BME280;59166;48.908;1.870;2023-04-08T21:45:01;101108.47;;;8.42;79.96
71361;BME280;59166;48.908;1.870;2023-04-08T21:50:02;101112.22;;;8.23;80.73
71361;BME280;59166;48.908;1.870;2023-04-08T21:55:05;101097.00;;;8.17;81.96
71361;BME280;59166;48.908;1.870;2023-04-08T22:00:08;101103.31;;;8.04;82.32
71361;BME280;59166;48.908;1.870;2023-04-08T22:05:09;101097.28;;;8.09;83.28
71361;BME280;59166;48.908;1.870;2023-04-08T22:10:12;101097.19;;;8.15;82.40
71361;BME280;59166;48.908;1.870;2023-04-08T22:15:12;101091.16;;;8.20;82.02
71361;BME280;59166;48.908;1.870;2023-04-08T22:20:13;101089.41;;;8.25;82.26
71361;BME280;59166;48.908;1.870;2023-04-08T22:25:15;101089.88;;;8.22;82.90
71361;BME280;59166;48.908;1.870;2023-04-08T22:30:16;101086.66;;;8.14;83.43
71361;BME280;59166;48.908;1.870;2023-04-08T22:35:17;101093.31;;;8.11;83.50
71361;BME280;59166;48.908;1.870;2023-04-08T22:40:20;101088.31;;;8.15;83.67
71361;BME280;59166;48.908;1.870;2023-04-08T22:45:20;101089.66;;;8.06;83.78
71361;BME280;59166;48.908;1.870;2023-04-08T22:50:21;101080.97;;;8.04;83.99
71361;BME280;59166;48.908;1.870;2023-04-08T22:55:23;101083.66;;;8.04;84.09
71361;BME280;59166;48.908;1.870;2023-04-08T23:00:24;101082.53;;;8.11;83.56
71361;BME280;59166;48.908;1.870;2023-04-08T23:05:25;101078.06;;;8.05;84.07
71361;BME280;59166;48.908;1.870;2023-04-08T23:10:27;101080.19;;;8.03;84.15
71361;BME280;59166;48.908;1.870;2023-04-08T23:15:28;101084.13;;;8.01;83.99
71361;BME280;59166;48.908;1.870;2023-04-08T23:20:29;101088.69;;;7.82;84.63
71361;BME280;59166;48.908;1.870;2023-04-08T23:25:33;101091.19;;;7.59;85.74
71361;BME280;59166;48.908;1.870;2023-04-08T23:30:35;101091.59;;;7.38;86.71
71361;BME280;59166;48.908;1.870;2023-04-08T23:35:37;101084.34;;;7.13;88.56
71361;BME280;59166;48.908;1.870;2023-04-08T23:40:40;101071.66;;;6.96;90.18
71361;BME280;59166;48.908;1.870;2023-04-08T23:45:40;101076.44;;;6.94;90.99
71361;BME280;59166;48.908;1.870;2023-04-08T23:50:41;101079.13;;;6.94;89.96
71361;BME280;59166;48.908;1.870;2023-04-08T23:55:43;101079.75;;;6.89;89.60
